Ocean Navigator — WSC2552 — position and weather

sailwx.info

Track history (hours):
 
Tides and Currents Weather Stations Pressure Air Temp Water Temp Dewpoint Dewpoint Depression Visibility Wind Speed Wind Dir Waves Ship Positions

Ocean Navigator

Owner: OCEAN NAVIGATOR INC, SEATTLE, WA. More information available from US FCC via Universal Licensing System and Coast Guard Vessel Documentation Center.

Last reported at 2017-Jan-22 19:33 UTC. Time now 2017-Jan-22 20:21 UTC.
Position N 48°59' W 123°12'.

Type: Tow > 200 m length. MMSI: 366358000.

Date/timePositionNaut miles runAvg speedWind from/ knotsBaromVisibWave heightAir tempDewpointWater temp
2017-Jan-22 19:33N 48°59' W 123°12'8 7.5
2017-Jan-22 18:33N 48°54' W 123°03'8 7.6
2017-Jan-22 17:33N 48°49' W 122°55'8 7.7
2017-Jan-22 16:33N 48°45' W 122°45'7 6.9
2017-Jan-22 15:33N 48°38' W 122°44'7 6.9
2017-Jan-22 14:33N 48°31' W 122°45'8 7.3
2017-Jan-22 13:25N 48°23' W 122°45'9 6.9
2017-Jan-22 12:05N 48°14' W 122°48'13 8.4
2017-Jan-22 10:30N 48°03' W 122°37'8 8.6
2017-Jan-22 09:33N 47°56' W 122°30'9 8.6
2017-Jan-22 08:33N 47°48' W 122°26'9 8.7
2017-Jan-22 07:33N 47°39' W 122°27'5 4.9
2017-Jan-22 06:33N 47°35' W 122°22'2 1.7
2017-Jan-22 05:33N 47°34' W 122°21'0 0.0
2017-Jan-22 04:33N 47°34' W 122°21'  
Track history (hours):
 
Tides and Currents Weather Stations Pressure Air Temp Water Temp Dewpoint Dewpoint Depression Visibility Wind Speed Wind Dir Waves Ship Positions

Ocean Navigator

Owner: OCEAN NAVIGATOR INC, SEATTLE, WA. More information available from US FCC via Universal Licensing System and Coast Guard Vessel Documentation Center.

Last reported at 2017-Jan-22 19:33 UTC. Time now 2017-Jan-22 20:21 UTC.
Position N 48°59' W 123°12'.

Type: Tow > 200 m length. MMSI: 366358000.

Date/timePositionNaut miles runAvg speedWind from/ knotsBaromVisibWave heightAir tempDewpointWater temp
2017-Jan-22 19:33N 48°59' W 123°12'8 7.5
2017-Jan-22 18:33N 48°54' W 123°03'8 7.6
2017-Jan-22 17:33N 48°49' W 122°55'8 7.7
2017-Jan-22 16:33N 48°45' W 122°45'7 6.9
2017-Jan-22 15:33N 48°38' W 122°44'7 6.9
2017-Jan-22 14:33N 48°31' W 122°45'8 7.3
2017-Jan-22 13:25N 48°23' W 122°45'9 6.9
2017-Jan-22 12:05N 48°14' W 122°48'13 8.4
2017-Jan-22 10:30N 48°03' W 122°37'8 8.6
2017-Jan-22 09:33N 47°56' W 122°30'9 8.6
2017-Jan-22 08:33N 47°48' W 122°26'9 8.7
2017-Jan-22 07:33N 47°39' W 122°27'5 4.9
2017-Jan-22 06:33N 47°35' W 122°22'2 1.7
2017-Jan-22 05:33N 47°34' W 122°21'0 0.0
2017-Jan-22 04:33N 47°34' W 122°21'  

Dump ship's entire track history